createdAt,value
2018-09-08T00:02:39.451Z,98868.58
2018-09-08T00:05:06.936Z,98873.37
2018-09-08T00:07:37.994Z,98863.48
2018-09-08T00:10:08.136Z,98868.30
2018-09-08T00:12:35.887Z,98876.05
2018-09-08T00:15:10.030Z,98876.88
2018-09-08T00:17:43.514Z,98879.80
2018-09-08T00:20:16.735Z,98873.94
2018-09-08T00:22:50.149Z,98883.00
2018-09-08T00:25:23.527Z,98872.05
2018-09-08T00:27:59.570Z,98874.20
2018-09-08T00:30:54.927Z,98875.27
2018-09-08T00:33:22.457Z,98877.12
2018-09-08T00:35:50.134Z,98875.52
2018-09-08T00:38:17.643Z,98877.67
2018-09-08T00:40:45.140Z,98872.04
2018-09-08T00:43:12.743Z,98830.38
2018-09-08T00:45:40.458Z,98881.39
2018-09-08T00:48:07.963Z,98884.06
2018-09-08T00:50:35.527Z,98885.41
2018-09-08T00:53:02.999Z,98890.76
2018-09-08T00:55:30.528Z,98889.98
2018-09-08T00:57:57.647Z,98895.33
2018-09-08T01:00:25.430Z,98894.24
2018-09-08T01:02:52.918Z,98892.92
2018-09-08T01:05:20.764Z,98897.19
2018-09-08T01:07:48.464Z,98896.64
2018-09-08T01:10:15.940Z,98903.58
2018-09-08T01:12:43.512Z,98885.43
2018-09-08T01:15:11.021Z,98911.06
2018-09-08T01:17:38.519Z,98903.86
2018-09-08T01:20:05.999Z,98911.87
2018-09-08T01:22:33.542Z,98910.80
2018-09-08T01:25:01.216Z,98916.95
2018-09-08T01:27:28.387Z,98917.50
2018-09-08T01:29:55.927Z,98923.11
2018-09-08T01:32:23.563Z,98916.95
2018-09-08T01:34:51.017Z,98920.97
2018-09-08T01:37:18.559Z,98916.70
2018-09-08T01:39:45.971Z,98916.95
2018-09-08T01:42:13.592Z,98918.04
2018-09-08T01:44:41.023Z,98917.48
2018-09-08T01:47:08.528Z,98918.56
2018-09-08T01:49:35.956Z,98917.23
2018-09-08T01:52:03.700Z,98922.03
2018-09-08T01:54:31.211Z,98917.47
2018-09-08T01:56:58.186Z,98916.66
2018-09-08T01:59:25.668Z,98916.40
2018-09-08T02:01:53.130Z,98918.55
2018-09-08T02:04:20.518Z,98919.89
2018-09-08T02:06:48.128Z,98920.15
2018-09-08T02:09:15.666Z,98925.49
2018-09-08T02:11:43.139Z,98931.36
2018-09-08T02:14:10.654Z,98927.35
2018-09-08T02:16:38.191Z,98931.65
2018-09-08T02:19:05.674Z,98931.91
2018-09-08T02:21:33.133Z,98931.37
2018-09-08T02:24:00.519Z,98931.63
2018-09-08T02:26:27.943Z,98932.16
2018-09-08T02:28:55.479Z,98927.08
2018-09-08T02:31:22.934Z,98926.30
2018-09-08T02:33:50.467Z,98935.09
2018-09-08T02:36:17.939Z,98936.98
2018-09-08T02:38:45.658Z,98933.76
2018-09-08T02:42:39.487Z,98929.48
2018-09-08T02:45:07.287Z,98931.09
2018-09-08T02:47:34.440Z,98927.89
2018-09-08T02:50:19.789Z,98925.75
2018-09-08T02:52:46.000Z,98928.42
2018-09-08T02:55:12.424Z,98933.77
2018-09-08T02:57:38.808Z,98929.47
2018-09-08T03:00:05.031Z,98923.08
2018-09-08T03:02:31.211Z,98927.61
2018-09-08T03:04:57.321Z,98931.36
2018-09-08T03:07:23.539Z,98935.89
2018-09-08T03:09:49.757Z,98933.73
2018-09-08T03:12:16.905Z,98944.71
2018-09-08T03:14:43.487Z,98946.83
2018-09-08T03:17:09.808Z,98950.31
2018-09-08T03:19:35.953Z,98946.31
2018-09-08T03:22:02.127Z,98939.09
2018-09-08T03:24:28.304Z,98950.84
2018-09-08T03:26:54.444Z,98947.09
2018-09-08T03:29:20.587Z,98946.02
2018-09-08T03:31:46.687Z,98946.02
2018-09-08T03:34:13.024Z,98946.28
2018-09-08T03:36:39.219Z,98947.62
2018-09-08T03:39:05.583Z,98956.70
2018-09-08T03:41:32.768Z,98957.48
2018-09-08T03:43:58.927Z,98955.11
2018-09-08T03:46:25.208Z,98950.55
2018-09-08T03:48:51.388Z,98950.00
2018-09-08T03:51:17.638Z,98951.08
2018-09-08T03:53:43.763Z,98948.92
2018-09-08T03:56:09.891Z,98950.81
2018-09-08T03:58:35.993Z,98950.00
2018-09-08T04:01:02.187Z,98946.55
2018-09-08T04:03:29.627Z,98952.15
2018-09-08T04:05:57.130Z,98953.20
2018-09-08T04:08:24.754Z,98955.34
2018-09-08T04:10:52.326Z,98950.81
2018-09-08T04:13:20.143Z,98952.94
2018-09-08T04:17:26.862Z,98960.69
2018-09-08T04:19:54.422Z,98961.70
2018-09-08T04:22:26.763Z,98961.44
2018-09-08T04:24:54.327Z,98965.77
2018-09-08T04:27:21.843Z,98966.25
2018-09-08T04:29:48.870Z,98965.70
2018-09-08T04:32:16.459Z,98962.51
2018-09-08T04:34:43.919Z,98961.44
2018-09-08T04:37:11.799Z,98961.95
2018-09-08T04:39:39.385Z,98960.36
2018-09-08T04:42:06.936Z,98960.10
2018-09-08T04:44:34.523Z,98962.22
2018-09-08T04:47:01.974Z,98964.63
2018-09-08T04:49:29.519Z,98965.70
2018-09-08T04:54:35.442Z,98969.16
2018-09-08T04:57:02.939Z,98968.37
2018-09-08T04:59:29.960Z,98956.84
2018-09-08T05:01:57.523Z,98961.11
2018-09-08T05:04:24.950Z,98968.62
2018-09-08T05:06:52.695Z,98974.75
2018-09-08T05:09:20.212Z,98972.60
2018-09-08T05:11:47.181Z,98979.02
2018-09-08T05:14:14.631Z,98983.28
2018-09-08T05:16:42.134Z,98986.50
2018-09-08T05:19:09.671Z,98982.76
2018-09-08T05:21:37.303Z,98982.23
2018-09-08T05:24:04.795Z,98996.10
2018-09-08T05:26:32.365Z,99001.15
2018-09-08T05:29:00.134Z,99008.08
2018-09-08T05:31:27.615Z,99005.70
2018-09-08T05:33:55.135Z,99000.59
2018-09-08T05:36:22.807Z,99007.56
2018-09-08T05:38:50.505Z,99011.56
2018-09-08T05:41:18.016Z,99005.41
2018-09-08T05:43:45.575Z,99006.22
2018-09-08T05:46:13.248Z,99010.48
2018-09-08T05:48:40.791Z,99013.16
2018-09-08T05:51:08.415Z,99009.93
2018-09-08T05:53:35.519Z,99014.23
2018-09-08T05:56:02.965Z,99018.75
2018-09-08T05:58:30.525Z,99024.61
2018-09-08T06:00:57.497Z,99030.77
2018-09-08T06:03:25.015Z,99028.61
2018-09-08T06:05:52.651Z,99027.58
2018-09-08T06:08:20.647Z,99024.91
2018-09-08T06:13:15.433Z,99022.23
2018-09-08T06:15:42.918Z,99023.27
2018-09-08T06:18:10.498Z,99032.36
2018-09-08T06:20:37.669Z,99029.12
2018-09-08T06:23:05.135Z,99032.40
2018-09-08T06:25:32.881Z,99029.17
2018-09-08T06:28:00.527Z,99039.08
2018-09-08T06:30:28.330Z,99033.22
2018-09-08T06:32:55.806Z,99040.68
2018-09-08T06:35:23.427Z,99041.50
2018-09-08T06:37:50.871Z,99047.39
2018-09-08T06:42:37.349Z,99034.30
2018-09-08T06:45:04.954Z,99038.83
2018-09-08T06:47:32.451Z,99022.49
2018-09-08T06:49:59.915Z,99041.28
2018-09-08T06:52:27.444Z,99044.20
2018-09-08T06:54:54.902Z,99046.06
2018-09-08T06:57:22.487Z,99043.13
2018-09-08T06:59:49.959Z,99039.39
2018-09-08T07:02:17.474Z,99031.64
2018-09-08T07:04:44.937Z,99047.95
2018-09-08T07:07:12.936Z,99049.55
2018-09-08T07:09:42.890Z,99049.07
2018-09-08T07:12:10.556Z,99050.96
2018-09-08T07:14:38.131Z,99047.48
2018-09-08T07:17:05.947Z,99044.81
2018-09-08T07:19:33.514Z,99050.96
2018-09-08T07:22:01.007Z,99053.92
2018-09-08T07:24:28.512Z,99047.00
2018-09-08T07:26:55.491Z,99048.63
2018-09-08T07:29:22.934Z,99038.98
2018-09-08T07:31:50.471Z,99045.70
2018-09-08T07:34:17.462Z,99048.63
2018-09-08T07:36:45.184Z,99046.77
2018-09-08T07:39:12.651Z,99051.85
2018-09-08T07:41:40.426Z,99056.94
2018-09-08T07:45:49.662Z,99063.06
2018-09-08T07:48:17.282Z,99062.50
2018-09-08T07:50:44.938Z,99062.34
2018-09-08T07:53:12.657Z,99060.42
2018-09-08T07:55:40.335Z,99069.84
2018-09-08T07:58:07.844Z,99068.76
2018-09-08T08:00:35.832Z,99067.42
2018-09-08T08:03:04.016Z,99069.28
2018-09-08T08:05:32.787Z,99069.81
2018-09-08T08:08:00.427Z,99073.03
2018-09-08T08:10:28.128Z,99071.41
2018-09-08T08:12:55.635Z,99069.28
2018-09-08T08:15:23.381Z,99077.30
2018-09-08T08:17:51.399Z,99072.77
2018-09-08T08:20:18.907Z,99074.39
2018-09-08T08:22:46.519Z,99075.44
2018-09-08T08:25:14.371Z,99071.17
2018-09-08T08:27:41.888Z,99071.17
2018-09-08T08:30:08.894Z,99078.14
2018-09-08T08:32:36.471Z,99078.41
2018-09-08T08:35:04.388Z,99072.24
2018-09-08T08:37:31.926Z,99064.52
2018-09-08T08:39:59.519Z,99071.45
2018-09-08T08:42:27.450Z,99064.77
2018-09-08T08:44:54.923Z,99067.45
2018-09-08T08:47:22.466Z,99076.28
2018-09-08T08:50:07.655Z,99070.14
2018-09-08T08:52:52.919Z,99078.69
2018-09-08T08:55:20.468Z,99080.28
2018-09-08T08:57:47.468Z,99074.70
2018-09-08T09:00:14.948Z,99075.78
2018-09-08T09:02:42.503Z,99074.70
2018-09-08T09:05:09.519Z,99070.98
2018-09-08T09:07:37.109Z,99066.97
2018-09-08T09:10:04.554Z,99069.38
2018-09-08T09:12:32.404Z,99064.84
2018-09-08T09:14:59.759Z,99067.50
2018-09-08T09:17:27.322Z,99062.15
2018-09-08T09:20:12.811Z,99058.16
2018-09-08T09:22:58.131Z,99058.16
2018-09-08T09:25:25.213Z,99052.81
2018-09-08T09:27:52.622Z,99049.88
2018-09-08T09:30:20.895Z,99048.01
2018-09-08T09:32:48.488Z,99048.80
2018-09-08T09:35:17.879Z,99041.87
2018-09-08T09:37:45.467Z,99038.65
2018-09-08T09:40:13.950Z,99037.31
2018-09-08T09:42:41.514Z,99037.86
2018-09-08T09:45:09.768Z,99037.56
2018-09-08T09:48:04.491Z,99034.89
2018-09-08T09:50:31.945Z,99031.69
2018-09-08T09:52:59.042Z,99034.64
2018-09-08T09:55:26.568Z,99030.88
2018-09-08T09:57:54.202Z,99031.97
2018-09-08T10:01:27.044Z,99031.17
2018-09-08T10:03:54.510Z,99023.39
2018-09-08T10:06:21.999Z,99025.53
2018-09-08T10:08:49.507Z,99022.61
2018-09-08T10:11:16.965Z,99029.55
2018-09-08T10:13:44.912Z,99032.50
2018-09-08T10:16:12.470Z,99025.28
2018-09-08T10:18:39.926Z,99028.77
2018-09-08T10:21:07.479Z,99033.03
2018-09-08T10:23:34.994Z,99030.09
2018-09-08T10:26:02.483Z,99025.27
2018-09-08T10:28:30.253Z,99017.54
2018-09-08T10:30:57.487Z,99011.91
2018-09-08T10:33:24.939Z,99004.96
2018-09-08T10:35:52.522Z,99010.82
2018-09-08T10:38:19.943Z,99006.55
2018-09-08T10:40:47.559Z,99003.34
2018-09-08T10:43:14.969Z,98995.85
2018-09-08T10:45:42.471Z,98992.92
2018-09-08T10:48:10.472Z,98992.39
2018-09-08T10:50:37.526Z,98992.12
2018-09-08T10:53:04.963Z,98992.38
2018-09-08T10:55:32.499Z,98991.30
2018-09-08T10:57:59.494Z,98993.16
2018-09-08T11:00:26.963Z,98989.44
2018-09-08T11:02:54.714Z,98983.28
2018-09-08T11:05:21.527Z,98985.13
2018-09-08T11:07:49.287Z,98988.35
2018-09-08T11:10:16.743Z,98983.27
2018-09-08T11:12:44.363Z,98982.73
2018-09-08T11:15:11.867Z,98984.89
2018-09-08T11:17:39.520Z,98981.13
2018-09-08T11:20:07.494Z,98980.33
2018-09-08T11:22:34.935Z,98975.52
2018-09-08T11:25:02.473Z,98969.89
2018-09-08T11:27:29.944Z,98978.71
2018-09-08T11:29:57.505Z,98970.69
2018-09-08T11:32:25.007Z,98975.50
2018-09-08T11:34:52.527Z,98981.39
2018-09-08T11:37:19.503Z,98976.58
2018-09-08T11:39:47.003Z,98975.78
2018-09-08T11:42:14.687Z,98964.82
2018-09-08T11:44:41.735Z,98967.47
2018-09-08T11:47:09.295Z,98965.88
2018-09-08T11:49:36.829Z,98968.55
2018-09-08T11:52:04.387Z,98957.05
2018-09-08T11:54:31.896Z,98955.72
2018-09-08T11:56:58.950Z,98952.48
2018-09-08T11:59:26.527Z,98906.53
2018-09-08T12:01:53.983Z,98948.46
2018-09-08T12:04:21.519Z,98940.72
2018-09-08T12:06:48.944Z,98950.88
2018-09-08T12:09:16.524Z,98945.25
2018-09-08T12:11:44.015Z,98946.58
2018-09-08T12:14:11.535Z,98930.81
2018-09-08T12:16:39.300Z,98927.08
2018-09-08T12:19:07.054Z,98924.64
2018-09-08T12:21:34.509Z,98924.92
2018-09-08T12:24:01.934Z,98927.31
2018-09-08T12:26:29.496Z,98925.72
2018-09-08T12:28:56.926Z,98924.38
2018-09-08T12:31:24.647Z,98918.48
2018-09-08T12:33:52.212Z,98916.89
2018-09-08T12:36:19.915Z,98913.14
2018-09-08T12:38:47.542Z,98913.39
2018-09-08T12:41:14.944Z,98912.33
2018-09-08T12:43:42.463Z,98906.70
2018-09-08T12:46:09.931Z,98902.69
2018-09-08T12:48:37.463Z,98909.94
2018-09-08T12:51:05.211Z,98899.73
2018-09-08T12:53:32.633Z,98905.62
2018-09-08T12:56:00.131Z,98900.55
2018-09-08T12:58:27.638Z,98901.34
2018-09-08T13:00:55.132Z,98903.73
2018-09-08T13:03:22.695Z,98901.60
2018-09-08T13:05:50.215Z,98899.21
2018-09-08T13:08:17.631Z,98892.52
2018-09-08T13:10:45.024Z,98892.77
2018-09-08T13:13:12.515Z,98897.88
2018-09-08T13:15:39.972Z,98876.20
2018-09-08T13:18:07.879Z,98878.59
2018-09-08T13:20:35.524Z,98881.52
2018-09-08T13:23:03.040Z,98881.52
2018-09-08T13:25:30.523Z,98881.81
2018-09-08T13:27:58.131Z,98875.38
2018-09-08T13:30:25.733Z,98880.19
2018-09-08T13:32:53.322Z,98885.28
2018-09-08T13:35:20.859Z,98880.72
2018-09-08T13:37:48.447Z,98882.31
2018-09-08T13:40:16.133Z,98883.91
2018-09-08T13:42:43.679Z,98879.64
2018-09-08T13:45:11.222Z,98877.21
2018-09-08T13:47:38.919Z,98878.02
2018-09-08T13:50:06.446Z,98875.88
2018-09-08T13:52:33.963Z,98868.66
2018-09-08T13:55:01.485Z,98865.70
2018-09-08T13:57:29.135Z,98860.35
2018-09-08T13:59:56.731Z,98852.32
2018-09-08T14:02:24.316Z,98853.41
2018-09-08T14:04:51.791Z,98849.11
2018-09-08T14:07:18.811Z,98848.05
2018-09-08T14:09:46.419Z,98848.05
2018-09-08T14:12:13.919Z,98849.64
2018-09-08T14:14:41.458Z,98857.12
2018-09-08T14:17:08.959Z,98854.45
2018-09-08T14:19:36.519Z,98853.11
2018-09-08T14:22:03.943Z,98855.78
2018-09-08T14:24:31.471Z,98852.02
2018-09-08T14:26:58.927Z,98852.56
2018-09-08T14:29:25.962Z,98846.67
2018-09-08T14:31:53.518Z,98847.73
2018-09-08T14:34:20.598Z,98844.53
2018-09-08T14:36:48.047Z,98846.92
2018-09-08T14:39:15.651Z,98843.45
2018-09-08T14:41:43.318Z,98843.70
2018-09-08T14:44:11.154Z,98844.26
2018-09-08T14:46:38.653Z,98841.02
2018-09-08T14:49:06.137Z,98841.58
2018-09-08T14:51:33.563Z,98841.30
2018-09-08T14:54:00.963Z,98845.32
2018-09-08T14:56:28.459Z,98841.00
2018-09-08T14:58:55.939Z,98838.88
2018-09-08T15:01:23.523Z,98846.35
2018-09-08T15:03:51.006Z,98839.13
2018-09-08T15:06:18.518Z,98835.37
2018-09-08T15:08:45.939Z,98835.37
2018-09-08T15:11:13.487Z,98828.42
2018-09-08T15:13:40.974Z,98827.89
2018-09-08T15:16:08.495Z,98808.94
2018-09-08T15:18:36.023Z,98828.67
2018-09-08T15:21:03.007Z,98830.30
2018-09-08T15:23:30.511Z,98824.12
2018-09-08T15:25:57.977Z,98828.96
2018-09-08T15:28:25.887Z,98823.32
2018-09-08T15:30:53.463Z,98827.63
2018-09-08T15:33:20.946Z,98826.28
2018-09-08T15:35:48.515Z,98827.06
2018-09-08T15:39:00.811Z,98832.42
2018-09-08T15:41:28.767Z,98830.80
2018-09-08T15:43:56.319Z,98833.48
2018-09-08T15:46:23.838Z,98841.23
2018-09-08T15:48:51.384Z,98845.00
2018-09-08T15:51:19.474Z,98844.73
2018-09-08T15:53:46.988Z,98845.81
2018-09-08T15:56:14.495Z,98844.47
2018-09-08T15:58:42.000Z,98840.71
2018-09-08T16:01:09.574Z,98836.69
2018-09-08T16:03:37.133Z,98840.71
2018-09-08T16:06:04.636Z,98839.62
2018-09-08T16:08:32.129Z,98835.88
2018-09-08T16:10:59.160Z,98835.37
2018-09-08T16:13:26.559Z,98842.05
2018-09-08T16:15:53.995Z,98833.75
2018-09-08T16:18:21.498Z,98846.31
2018-09-08T16:20:48.964Z,98845.25
2018-09-08T16:23:16.486Z,98842.30
2018-09-08T16:28:26.440Z,98838.28
2018-09-08T16:30:53.907Z,98843.66
2018-09-08T16:33:20.938Z,98836.42
2018-09-08T16:35:48.475Z,98836.69
2018-09-08T16:38:15.914Z,98835.61
2018-09-08T16:40:43.426Z,98835.61
2018-09-08T16:43:10.924Z,98832.93
2018-09-08T16:45:38.451Z,98834.83
2018-09-08T16:48:05.930Z,98843.39
2018-09-08T16:50:33.500Z,98843.39
2018-09-08T16:53:01.035Z,98845.25
2018-09-08T16:55:28.806Z,98851.42
2018-09-08T16:57:56.483Z,98846.59
2018-09-08T17:00:23.974Z,98843.66
2018-09-08T17:02:51.613Z,98825.80
2018-09-08T17:05:19.201Z,98838.58
2018-09-08T17:07:46.783Z,98842.59
2018-09-08T17:10:14.350Z,98839.92
2018-09-08T17:12:41.937Z,98844.75
2018-09-08T17:15:09.132Z,98842.06
2018-09-08T17:17:36.554Z,98843.15
2018-09-08T17:20:03.963Z,98843.15
2018-09-08T17:22:31.502Z,98848.50
2018-09-08T17:24:59.039Z,98843.15
2018-09-08T17:27:26.011Z,98840.75
2018-09-08T17:29:53.510Z,98844.77
2018-09-08T17:32:20.517Z,98850.14
2018-09-08T17:34:48.212Z,98851.48
2018-09-08T17:37:15.632Z,98855.23
2018-09-08T17:39:43.130Z,98854.95
2018-09-08T17:42:10.515Z,98858.72
2018-09-08T17:44:38.003Z,98864.07
2018-09-08T17:47:05.498Z,98861.67
2018-09-08T17:49:33.371Z,98860.61
2018-09-08T17:52:00.947Z,98863.03
2018-09-08T17:54:28.450Z,98866.79
2018-09-08T17:56:55.930Z,98862.49
2018-09-08T17:59:23.451Z,98867.34
2018-09-08T18:01:50.938Z,98865.19
2018-09-08T18:04:18.450Z,98864.66
2018-09-08T18:06:45.902Z,98863.31
2018-09-08T18:09:13.468Z,98865.73
2018-09-08T18:11:40.910Z,98867.34
2018-09-08T18:14:08.431Z,98866.80
2018-09-08T18:16:35.978Z,98870.56
2018-09-08T18:19:03.462Z,98874.33
2018-09-08T18:21:30.938Z,98880.48
2018-09-08T18:23:58.479Z,98884.73
2018-09-08T18:26:26.131Z,98885.00
2018-09-08T18:28:53.527Z,98879.40
2018-09-08T18:31:21.174Z,98877.80
2018-09-08T18:33:48.666Z,98888.23
2018-09-08T18:36:16.302Z,98896.83
2018-09-08T18:38:43.851Z,98891.47
2018-09-08T18:41:11.483Z,98894.42
2018-09-08T18:43:38.983Z,98894.95
2018-09-08T18:46:06.520Z,98894.69
2018-09-08T18:48:33.959Z,98902.18
2018-09-08T18:51:01.554Z,98900.59
2018-09-08T18:53:29.559Z,98902.97
2018-09-08T18:55:57.133Z,98897.66
2018-09-08T18:58:24.659Z,98904.88
2018-09-08T19:00:51.718Z,98912.34
2018-09-08T19:03:19.295Z,98911.00
2018-09-08T19:05:46.787Z,98908.07
2018-09-08T19:08:14.432Z,98908.61
2018-09-08T19:10:41.914Z,98916.91
2018-09-08T19:13:09.476Z,98911.80
2018-09-08T19:15:37.039Z,98914.47
2018-09-08T19:18:04.862Z,98908.33
2018-09-08T19:20:36.680Z,98917.69
2018-09-08T19:24:43.855Z,98917.16
2018-09-08T19:27:12.343Z,98913.67
2018-09-08T19:29:45.647Z,98914.77
2018-09-08T19:32:13.183Z,98911.83
2018-09-08T19:34:40.678Z,98913.44
2018-09-08T19:37:08.305Z,98918.77
2018-09-08T19:39:35.852Z,98918.27
2018-09-08T19:42:03.462Z,98916.66
2018-09-08T19:44:30.963Z,98924.16
2018-09-08T19:47:04.440Z,98918.27
2018-09-08T19:49:31.991Z,98920.68
2018-09-08T19:51:59.499Z,98924.69
2018-09-08T19:54:27.007Z,98916.94
2018-09-08T19:57:00.212Z,98920.93
2018-09-08T19:59:27.210Z,98918.81
2018-09-08T20:01:54.618Z,98922.02
2018-09-08T20:04:22.127Z,98918.83
2018-09-08T20:06:49.650Z,98910.25
2018-09-08T20:09:17.703Z,98923.89
2018-09-08T20:11:45.170Z,98929.52
2018-09-08T20:14:12.643Z,98926.05
2018-09-08T20:16:40.467Z,98935.13
2018-09-08T20:19:07.982Z,98927.66
2018-09-08T20:21:35.615Z,98930.86
2018-09-08T20:24:03.128Z,98928.97
2018-09-08T20:26:30.707Z,98930.05
2018-09-08T20:28:58.680Z,98932.73
2018-09-08T20:31:26.012Z,98932.73
2018-09-08T20:33:53.543Z,98929.25
2018-09-08T20:36:21.187Z,98930.59
2018-09-08T20:38:48.347Z,98928.73
2018-09-08T20:41:15.842Z,98933.80
2018-09-08T20:43:43.514Z,98931.41
2018-09-08T20:46:11.262Z,98928.20
2018-09-08T20:48:38.919Z,98928.98
2018-09-08T20:51:06.466Z,98927.65
2018-09-08T20:53:33.937Z,98920.70
2018-09-08T20:56:01.475Z,98911.37
2018-09-08T20:58:28.927Z,98922.30
2018-09-08T21:00:56.703Z,98914.02
2018-09-08T21:03:24.227Z,98910.84
2018-09-08T21:05:51.763Z,98917.52
2018-09-08T21:08:19.448Z,98914.30
2018-09-08T21:10:47.307Z,98912.70
2018-09-08T21:13:15.014Z,98911.89
2018-09-08T21:15:42.555Z,98912.42
2018-09-08T21:18:09.984Z,98916.17
2018-09-08T21:20:37.518Z,98918.59
2018-09-08T21:23:05.014Z,98920.98
2018-09-08T21:25:32.520Z,98915.65
2018-09-08T21:27:59.999Z,98921.55
2018-09-08T21:30:27.495Z,98927.42
2018-09-08T21:32:55.003Z,98917.52
2018-09-08T21:35:22.494Z,98926.87
2018-09-08T21:37:50.128Z,98915.39
2018-09-08T21:40:17.650Z,98923.12
2018-09-08T21:42:45.129Z,98920.19
2018-09-08T21:45:12.861Z,98924.20
2018-09-08T21:47:40.467Z,98919.41
2018-09-08T21:50:08.322Z,98923.94
2018-09-08T21:52:35.820Z,98923.89
2018-09-08T21:55:03.614Z,98931.42
2018-09-08T21:57:31.132Z,98927.95
2018-09-08T21:59:58.714Z,98928.75
2018-09-08T22:02:25.850Z,98936.48
2018-09-08T22:04:53.406Z,98934.34
2018-09-08T22:07:21.040Z,98944.75
2018-09-08T22:09:48.695Z,98943.94
2018-09-08T22:12:16.315Z,98939.15
2018-09-08T22:14:43.807Z,98943.16
2018-09-08T22:17:11.490Z,98947.17
2018-09-08T22:19:38.971Z,98947.70
2018-09-08T22:22:06.655Z,98945.55
2018-09-08T22:24:34.278Z,98951.45
2018-09-08T22:27:01.855Z,98951.45
2018-09-08T22:29:29.441Z,98950.11
2018-09-08T22:31:57.342Z,98955.17
2018-09-08T22:34:24.935Z,98957.84
2018-09-08T22:36:52.472Z,98960.80
2018-09-08T22:39:19.939Z,98950.64
2018-09-08T22:41:47.517Z,98960.25
2018-09-08T22:44:14.568Z,98959.70
2018-09-08T22:46:42.183Z,98957.30
2018-09-08T22:49:09.675Z,98959.72
2018-09-08T22:51:37.206Z,98957.58
2018-09-08T22:54:04.963Z,98958.09
2018-09-08T22:56:32.524Z,98961.03
2018-09-08T22:59:00.133Z,98954.35
2018-09-08T23:01:27.679Z,98962.37
2018-09-08T23:03:55.206Z,98963.19
2018-09-08T23:07:57.731Z,98961.03
2018-09-08T23:10:25.405Z,98958.89
2018-09-08T23:12:52.514Z,98952.20
2018-09-08T23:15:19.945Z,98960.48
2018-09-08T23:17:47.615Z,98961.04
2018-09-08T23:20:14.614Z,98959.97
2018-09-08T23:22:42.219Z,98961.56
2018-09-08T23:25:09.795Z,98960.75
2018-09-08T23:27:37.448Z,98960.50
2018-09-08T23:30:04.976Z,98967.17
2018-09-08T23:32:32.014Z,98963.98
2018-09-08T23:34:59.682Z,98964.23
2018-09-08T23:37:27.266Z,98967.70
2018-09-08T23:39:55.504Z,98963.42
2018-09-08T23:42:23.007Z,98957.83
2018-09-08T23:44:50.756Z,98958.88
2018-09-08T23:47:18.411Z,98955.16
2018-09-08T23:49:45.884Z,98955.13
2018-09-08T23:52:14.504Z,98961.28
2018-09-08T23:54:42.007Z,98964.22
2018-09-08T23:57:09.751Z,98961.80
2018-09-08T23:59:37.362Z,98964.22
